KSAW

Sawyer International Airport

Marquette, Michigan, USA
METAR KSAW 190858Z AUTO 00000KT 7SM OVC010 09/07 A3010 RMK AO2 T00850065
Observed Flight Rules
Sep-19 @ 08:58 UTC (14 minutes ago) Marginal Visual Flight Rules
Visibility Clouds
7 miles
  • Overcast at 1,000' AGL
Temperatures Readings
Current 9°C / 48°F
Dewpoint 7°C / 45°F
Humidity 87%
Altimeter 30.1" Hg
Pressure 1019 hPa
Elevation 372
METAR KSAW 190858Z AUTO 00000KT 7SM OVC010 09/07 A3010 RMK AO2 T00850065
Observed Flight Rules
Sep-19 @ 08:58 UTC
(14 minutes ago)
MVFR
Clouds
  • Overcast at 1,000' AGL
Temperature Dewpoint
9°C / 48°F 7°C / 45°F
Humidity Altimeter Pressure
87% 30.1" Hg 1019 hPa